sensor_id;sensor_type;location;lat;lon;timestamp;P1;durP1;ratioP1;P2;durP2;ratioP2
47161;SDS011;32921;53.256;8.198;2023-04-03T00:02:06;6.97;;;1.50;;
47161;SDS011;32921;53.256;8.198;2023-04-03T00:04:32;6.43;;;1.52;;
47161;SDS011;32921;53.256;8.198;2023-04-03T00:06:57;5.18;;;1.52;;
47161;SDS011;32921;53.256;8.198;2023-04-03T00:09:23;4.40;;;1.38;;
47161;SDS011;32921;53.256;8.198;2023-04-03T00:11:48;5.25;;;1.38;;
47161;SDS011;32921;53.256;8.198;2023-04-03T00:14:14;8.30;;;2.08;;
47161;SDS011;32921;53.256;8.198;2023-04-03T00:16:40;6.82;;;1.73;;
47161;SDS011;32921;53.256;8.198;2023-04-03T00:19:05;6.07;;;1.50;;
47161;SDS011;32921;53.256;8.198;2023-04-03T00:21:31;6.70;;;1.60;;
47161;SDS011;32921;53.256;8.198;2023-04-03T00:23:56;6.53;;;1.70;;
47161;SDS011;32921;53.256;8.198;2023-04-03T00:26:22;6.40;;;1.70;;
47161;SDS011;32921;53.256;8.198;2023-04-03T00:28:47;8.82;;;1.80;;
47161;SDS011;32921;53.256;8.198;2023-04-03T00:31:16;6.70;;;1.92;;
47161;SDS011;32921;53.256;8.198;2023-04-03T00:33:41;5.15;;;1.83;;
47161;SDS011;32921;53.256;8.198;2023-04-03T00:36:08;6.85;;;1.67;;
47161;SDS011;32921;53.256;8.198;2023-04-03T00:38:34;6.68;;;1.70;;
47161;SDS011;32921;53.256;8.198;2023-04-03T00:41:00;6.35;;;2.10;;
47161;SDS011;32921;53.256;8.198;2023-04-03T00:43:25;4.55;;;1.73;;
47161;SDS011;32921;53.256;8.198;2023-04-03T00:45:52;9.15;;;1.70;;
47161;SDS011;32921;53.256;8.198;2023-04-03T00:48:26;7.03;;;2.08;;
47161;SDS011;32921;53.256;8.198;2023-04-03T00:50:57;6.35;;;1.88;;
47161;SDS011;32921;53.256;8.198;2023-04-03T00:53:46;5.95;;;1.80;;
47161;SDS011;32921;53.256;8.198;2023-04-03T00:56:12;6.57;;;2.30;;
47161;SDS011;32921;53.256;8.198;2023-04-03T00:58:49;5.28;;;1.70;;
47161;SDS011;32921;53.256;8.198;2023-04-03T01:01:25;7.82;;;1.65;;
47161;SDS011;32921;53.256;8.198;2023-04-03T01:03:53;7.65;;;2.63;;
47161;SDS011;32921;53.256;8.198;2023-04-03T01:06:20;7.45;;;1.85;;
47161;SDS011;32921;53.256;8.198;2023-04-03T01:08:50;8.60;;;2.10;;
47161;SDS011;32921;53.256;8.198;2023-04-03T01:11:16;7.07;;;2.30;;
47161;SDS011;32921;53.256;8.198;2023-04-03T01:13:41;7.65;;;2.13;;
47161;SDS011;32921;53.256;8.198;2023-04-03T01:16:07;7.25;;;2.03;;
47161;SDS011;32921;53.256;8.198;2023-04-03T01:18:33;8.40;;;2.35;;
47161;SDS011;32921;53.256;8.198;2023-04-03T01:26:48;7.28;;;1.70;;
47161;SDS011;32921;53.256;8.198;2023-04-03T01:29:15;6.68;;;2.05;;
47161;SDS011;32921;53.256;8.198;2023-04-03T01:34:16;8.45;;;2.28;;
47161;SDS011;32921;53.256;8.198;2023-04-03T01:36:42;6.93;;;2.10;;
47161;SDS011;32921;53.256;8.198;2023-04-03T01:39:08;5.65;;;1.80;;
47161;SDS011;32921;53.256;8.198;2023-04-03T01:41:33;11.43;;;2.45;;
47161;SDS011;32921;53.256;8.198;2023-04-03T01:43:59;10.38;;;2.53;;
47161;SDS011;32921;53.256;8.198;2023-04-03T01:46:25;12.73;;;2.80;;
47161;SDS011;32921;53.256;8.198;2023-04-03T01:48:50;13.43;;;3.08;;
47161;SDS011;32921;53.256;8.198;2023-04-03T01:51:16;8.52;;;2.20;;
47161;SDS011;32921;53.256;8.198;2023-04-03T01:53:42;9.77;;;1.88;;
47161;SDS011;32921;53.256;8.198;2023-04-03T01:56:07;8.40;;;2.03;;
47161;SDS011;32921;53.256;8.198;2023-04-03T01:58:33;8.13;;;2.42;;
47161;SDS011;32921;53.256;8.198;2023-04-03T02:00:59;9.35;;;2.00;;
47161;SDS011;32921;53.256;8.198;2023-04-03T02:03:25;10.73;;;2.30;;
47161;SDS011;32921;53.256;8.198;2023-04-03T02:05:51;10.93;;;2.08;;
47161;SDS011;32921;53.256;8.198;2023-04-03T02:08:16;10.45;;;1.98;;
47161;SDS011;32921;53.256;8.198;2023-04-03T02:10:48;8.85;;;3.20;;
47161;SDS011;32921;53.256;8.198;2023-04-03T02:13:15;9.00;;;2.45;;
47161;SDS011;32921;53.256;8.198;2023-04-03T02:15:41;6.07;;;2.63;;
47161;SDS011;32921;53.256;8.198;2023-04-03T02:18:07;7.10;;;2.13;;
47161;SDS011;32921;53.256;8.198;2023-04-03T02:20:32;8.77;;;2.05;;
47161;SDS011;32921;53.256;8.198;2023-04-03T02:22:59;9.00;;;2.60;;
47161;SDS011;32921;53.256;8.198;2023-04-03T02:25:25;7.13;;;2.47;;
47161;SDS011;32921;53.256;8.198;2023-04-03T02:27:51;8.20;;;2.30;;
47161;SDS011;32921;53.256;8.198;2023-04-03T02:30:17;9.00;;;2.38;;
47161;SDS011;32921;53.256;8.198;2023-04-03T02:32:43;7.00;;;2.45;;
47161;SDS011;32921;53.256;8.198;2023-04-03T02:35:09;10.75;;;2.72;;
47161;SDS011;32921;53.256;8.198;2023-04-03T02:37:38;10.43;;;2.92;;
47161;SDS011;32921;53.256;8.198;2023-04-03T02:40:04;11.23;;;2.58;;
47161;SDS011;32921;53.256;8.198;2023-04-03T02:42:31;7.68;;;2.15;;
47161;SDS011;32921;53.256;8.198;2023-04-03T02:44:56;6.13;;;2.00;;
47161;SDS011;32921;53.256;8.198;2023-04-03T02:47:22;15.32;;;2.90;;
47161;SDS011;32921;53.256;8.198;2023-04-03T02:49:48;9.93;;;3.15;;
47161;SDS011;32921;53.256;8.198;2023-04-03T02:52:13;13.07;;;3.78;;
47161;SDS011;32921;53.256;8.198;2023-04-03T02:54:39;8.18;;;2.88;;
47161;SDS011;32921;53.256;8.198;2023-04-03T02:57:06;13.48;;;3.67;;
47161;SDS011;32921;53.256;8.198;2023-04-03T02:59:33;12.05;;;2.78;;
47161;SDS011;32921;53.256;8.198;2023-04-03T03:02:00;10.68;;;2.60;;
47161;SDS011;32921;53.256;8.198;2023-04-03T03:04:26;11.25;;;2.67;;
47161;SDS011;32921;53.256;8.198;2023-04-03T03:06:51;10.70;;;2.80;;
47161;SDS011;32921;53.256;8.198;2023-04-03T03:09:17;11.98;;;2.60;;
47161;SDS011;32921;53.256;8.198;2023-04-03T03:11:43;13.93;;;4.03;;
47161;SDS011;32921;53.256;8.198;2023-04-03T03:14:09;11.05;;;2.90;;
47161;SDS011;32921;53.256;8.198;2023-04-03T03:16:34;12.35;;;3.20;;
47161;SDS011;32921;53.256;8.198;2023-04-03T03:19:00;10.05;;;3.10;;
47161;SDS011;32921;53.256;8.198;2023-04-03T03:21:26;13.23;;;3.25;;
47161;SDS011;32921;53.256;8.198;2023-04-03T03:23:52;6.65;;;3.05;;
47161;SDS011;32921;53.256;8.198;2023-04-03T03:26:17;11.82;;;3.45;;
47161;SDS011;32921;53.256;8.198;2023-04-03T03:28:43;15.07;;;3.35;;
47161;SDS011;32921;53.256;8.198;2023-04-03T03:31:08;13.30;;;3.55;;
47161;SDS011;32921;53.256;8.198;2023-04-03T03:33:35;11.02;;;3.30;;
47161;SDS011;32921;53.256;8.198;2023-04-03T03:36:01;14.88;;;3.47;;
47161;SDS011;32921;53.256;8.198;2023-04-03T03:38:26;10.13;;;3.47;;
47161;SDS011;32921;53.256;8.198;2023-04-03T03:40:52;10.93;;;3.13;;
47161;SDS011;32921;53.256;8.198;2023-04-03T03:43:18;15.00;;;3.30;;
47161;SDS011;32921;53.256;8.198;2023-04-03T03:45:45;13.50;;;3.20;;
47161;SDS011;32921;53.256;8.198;2023-04-03T03:48:15;13.45;;;3.08;;
47161;SDS011;32921;53.256;8.198;2023-04-03T03:50:40;11.05;;;3.47;;
47161;SDS011;32921;53.256;8.198;2023-04-03T03:53:06;19.83;;;4.57;;
47161;SDS011;32921;53.256;8.198;2023-04-03T03:55:32;14.55;;;3.70;;
47161;SDS011;32921;53.256;8.198;2023-04-03T03:57:57;11.27;;;3.70;;
47161;SDS011;32921;53.256;8.198;2023-04-03T04:00:23;11.05;;;3.45;;
47161;SDS011;32921;53.256;8.198;2023-04-03T04:02:48;9.95;;;3.75;;
47161;SDS011;32921;53.256;8.198;2023-04-03T04:05:14;10.68;;;3.85;;
47161;SDS011;32921;53.256;8.198;2023-04-03T04:07:39;16.10;;;4.18;;
47161;SDS011;32921;53.256;8.198;2023-04-03T04:10:05;19.35;;;4.88;;
47161;SDS011;32921;53.256;8.198;2023-04-03T04:12:31;12.48;;;4.13;;
47161;SDS011;32921;53.256;8.198;2023-04-03T04:14:57;16.13;;;4.35;;
47161;SDS011;32921;53.256;8.198;2023-04-03T04:17:22;16.88;;;4.93;;
47161;SDS011;32921;53.256;8.198;2023-04-03T04:19:48;12.60;;;4.70;;
47161;SDS011;32921;53.256;8.198;2023-04-03T04:22:13;15.30;;;4.60;;
47161;SDS011;32921;53.256;8.198;2023-04-03T04:24:39;15.23;;;5.65;;
47161;SDS011;32921;53.256;8.198;2023-04-03T04:27:04;17.60;;;5.40;;
47161;SDS011;32921;53.256;8.198;2023-04-03T04:29:30;20.38;;;5.20;;
47161;SDS011;32921;53.256;8.198;2023-04-03T04:32:00;17.15;;;5.22;;
47161;SDS011;32921;53.256;8.198;2023-04-03T04:34:26;18.40;;;6.78;;
47161;SDS011;32921;53.256;8.198;2023-04-03T04:36:52;17.48;;;6.15;;
47161;SDS011;32921;53.256;8.198;2023-04-03T04:39:18;24.67;;;6.43;;
47161;SDS011;32921;53.256;8.198;2023-04-03T04:41:43;20.50;;;6.65;;
47161;SDS011;32921;53.256;8.198;2023-04-03T04:44:09;13.50;;;6.45;;
47161;SDS011;32921;53.256;8.198;2023-04-03T04:46:34;23.05;;;6.90;;
47161;SDS011;32921;53.256;8.198;2023-04-03T04:49:00;23.88;;;6.80;;
47161;SDS011;32921;53.256;8.198;2023-04-03T04:51:25;17.13;;;7.43;;
47161;SDS011;32921;53.256;8.198;2023-04-03T04:53:51;17.77;;;6.60;;
47161;SDS011;32921;53.256;8.198;2023-04-03T04:56:16;17.63;;;7.22;;
47161;SDS011;32921;53.256;8.198;2023-04-03T04:58:42;18.35;;;8.02;;
47161;SDS011;32921;53.256;8.198;2023-04-03T05:01:08;20.15;;;8.50;;
47161;SDS011;32921;53.256;8.198;2023-04-03T05:03:35;18.83;;;8.05;;
47161;SDS011;32921;53.256;8.198;2023-04-03T05:06:01;23.17;;;8.00;;
47161;SDS011;32921;53.256;8.198;2023-04-03T05:08:27;21.42;;;7.90;;
47161;SDS011;32921;53.256;8.198;2023-04-03T05:10:53;18.40;;;8.50;;
47161;SDS011;32921;53.256;8.198;2023-04-03T05:13:19;26.83;;;9.68;;
47161;SDS011;32921;53.256;8.198;2023-04-03T05:15:45;21.77;;;8.82;;
47161;SDS011;32921;53.256;8.198;2023-04-03T05:18:12;25.35;;;8.60;;
47161;SDS011;32921;53.256;8.198;2023-04-03T05:20:38;25.45;;;8.23;;
47161;SDS011;32921;53.256;8.198;2023-04-03T05:23:04;22.30;;;8.95;;
47161;SDS011;32921;53.256;8.198;2023-04-03T05:25:29;27.92;;;9.27;;
47161;SDS011;32921;53.256;8.198;2023-04-03T05:27:55;27.17;;;8.57;;
47161;SDS011;32921;53.256;8.198;2023-04-03T05:30:21;21.83;;;8.38;;
47161;SDS011;32921;53.256;8.198;2023-04-03T05:32:47;24.95;;;9.30;;
47161;SDS011;32921;53.256;8.198;2023-04-03T05:35:13;25.13;;;9.25;;
47161;SDS011;32921;53.256;8.198;2023-04-03T05:37:38;21.10;;;8.48;;
47161;SDS011;32921;53.256;8.198;2023-04-03T05:40:05;26.52;;;10.00;;
47161;SDS011;32921;53.256;8.198;2023-04-03T05:42:31;28.65;;;9.70;;
47161;SDS011;32921;53.256;8.198;2023-04-03T05:44:57;23.20;;;9.70;;
47161;SDS011;32921;53.256;8.198;2023-04-03T05:47:23;26.33;;;8.98;;
47161;SDS011;32921;53.256;8.198;2023-04-03T05:49:48;21.75;;;9.10;;
47161;SDS011;32921;53.256;8.198;2023-04-03T05:52:22;27.55;;;9.65;;
47161;SDS011;32921;53.256;8.198;2023-04-03T05:54:51;25.20;;;10.40;;
47161;SDS011;32921;53.256;8.198;2023-04-03T05:57:17;34.22;;;12.93;;
47161;SDS011;32921;53.256;8.198;2023-04-03T05:59:43;19.83;;;8.70;;
47161;SDS011;32921;53.256;8.198;2023-04-03T06:02:10;19.65;;;9.20;;
47161;SDS011;32921;53.256;8.198;2023-04-03T06:04:45;20.92;;;8.95;;
47161;SDS011;32921;53.256;8.198;2023-04-03T06:07:15;20.20;;;8.15;;
47161;SDS011;32921;53.256;8.198;2023-04-03T06:09:42;17.27;;;7.85;;
47161;SDS011;32921;53.256;8.198;2023-04-03T06:12:08;22.25;;;7.90;;
47161;SDS011;32921;53.256;8.198;2023-04-03T06:14:34;16.35;;;7.85;;
47161;SDS011;32921;53.256;8.198;2023-04-03T06:17:00;19.55;;;8.13;;
47161;SDS011;32921;53.256;8.198;2023-04-03T06:19:26;20.17;;;7.82;;
47161;SDS011;32921;53.256;8.198;2023-04-03T06:21:52;18.08;;;7.97;;
47161;SDS011;32921;53.256;8.198;2023-04-03T06:24:18;17.90;;;7.60;;
47161;SDS011;32921;53.256;8.198;2023-04-03T06:26:44;20.23;;;7.07;;
47161;SDS011;32921;53.256;8.198;2023-04-03T06:29:11;18.23;;;6.70;;
47161;SDS011;32921;53.256;8.198;2023-04-03T06:31:36;30.27;;;6.70;;
47161;SDS011;32921;53.256;8.198;2023-04-03T06:34:03;18.83;;;6.13;;
47161;SDS011;32921;53.256;8.198;2023-04-03T06:36:29;17.70;;;5.78;;
47161;SDS011;32921;53.256;8.198;2023-04-03T06:38:55;15.23;;;5.20;;
47161;SDS011;32921;53.256;8.198;2023-04-03T06:41:20;14.57;;;5.68;;
47161;SDS011;32921;53.256;8.198;2023-04-03T06:43:46;14.15;;;4.18;;
47161;SDS011;32921;53.256;8.198;2023-04-03T06:46:16;11.23;;;4.05;;
47161;SDS011;32921;53.256;8.198;2023-04-03T06:48:43;9.20;;;3.30;;
47161;SDS011;32921;53.256;8.198;2023-04-03T06:51:30;8.82;;;3.15;;
47161;SDS011;32921;53.256;8.198;2023-04-03T06:53:56;7.53;;;2.90;;
47161;SDS011;32921;53.256;8.198;2023-04-03T06:56:23;7.13;;;2.60;;
47161;SDS011;32921;53.256;8.198;2023-04-03T06:58:51;13.15;;;3.88;;
47161;SDS011;32921;53.256;8.198;2023-04-03T07:01:19;10.10;;;2.90;;
47161;SDS011;32921;53.256;8.198;2023-04-03T07:03:45;8.93;;;2.83;;
47161;SDS011;32921;53.256;8.198;2023-04-03T07:06:13;7.25;;;2.13;;
47161;SDS011;32921;53.256;8.198;2023-04-03T07:08:46;8.52;;;3.05;;
47161;SDS011;32921;53.256;8.198;2023-04-03T07:11:13;6.80;;;2.50;;
47161;SDS011;32921;53.256;8.198;2023-04-03T07:13:42;8.65;;;2.65;;
47161;SDS011;32921;53.256;8.198;2023-04-03T07:16:08;8.23;;;2.70;;
47161;SDS011;32921;53.256;8.198;2023-04-03T07:18:34;6.20;;;2.13;;
47161;SDS011;32921;53.256;8.198;2023-04-03T07:21:01;6.28;;;1.90;;
47161;SDS011;32921;53.256;8.198;2023-04-03T07:23:28;8.43;;;2.10;;
47161;SDS011;32921;53.256;8.198;2023-04-03T07:25:53;7.32;;;1.95;;
47161;SDS011;32921;53.256;8.198;2023-04-03T07:28:19;9.07;;;2.20;;
47161;SDS011;32921;53.256;8.198;2023-04-03T07:30:48;6.65;;;1.67;;
47161;SDS011;32921;53.256;8.198;2023-04-03T07:33:16;6.75;;;1.90;;
47161;SDS011;32921;53.256;8.198;2023-04-03T07:35:43;6.55;;;1.67;;
47161;SDS011;32921;53.256;8.198;2023-04-03T07:38:10;9.88;;;2.10;;
47161;SDS011;32921;53.256;8.198;2023-04-03T07:40:36;8.13;;;1.85;;
47161;SDS011;32921;53.256;8.198;2023-04-03T07:43:02;5.78;;;1.80;;
47161;SDS011;32921;53.256;8.198;2023-04-03T07:45:28;6.95;;;1.80;;
47161;SDS011;32921;53.256;8.198;2023-04-03T07:47:54;7.55;;;1.60;;
47161;SDS011;32921;53.256;8.198;2023-04-03T07:50:21;4.93;;;1.45;;
47161;SDS011;32921;53.256;8.198;2023-04-03T07:52:47;6.57;;;1.48;;
47161;SDS011;32921;53.256;8.198;2023-04-03T07:55:13;5.55;;;1.73;;
47161;SDS011;32921;53.256;8.198;2023-04-03T07:57:39;3.83;;;1.60;;
47161;SDS011;32921;53.256;8.198;2023-04-03T08:00:06;7.68;;;1.60;;
47161;SDS011;32921;53.256;8.198;2023-04-03T08:02:33;8.27;;;2.15;;
47161;SDS011;32921;53.256;8.198;2023-04-03T08:04:59;5.65;;;1.90;;
47161;SDS011;32921;53.256;8.198;2023-04-03T08:07:25;8.50;;;2.00;;
47161;SDS011;32921;53.256;8.198;2023-04-03T08:09:51;5.00;;;1.92;;
47161;SDS011;32921;53.256;8.198;2023-04-03T08:12:17;7.45;;;1.67;;
47161;SDS011;32921;53.256;8.198;2023-04-03T08:14:42;8.23;;;1.80;;
47161;SDS011;32921;53.256;8.198;2023-04-03T08:17:08;5.63;;;1.67;;
47161;SDS011;32921;53.256;8.198;2023-04-03T08:19:37;8.25;;;1.30;;
47161;SDS011;32921;53.256;8.198;2023-04-03T08:22:03;5.10;;;1.23;;
47161;SDS011;32921;53.256;8.198;2023-04-03T08:24:30;7.20;;;1.77;;
47161;SDS011;32921;53.256;8.198;2023-04-03T08:26:56;5.32;;;1.50;;
47161;SDS011;32921;53.256;8.198;2023-04-03T08:29:22;4.63;;;1.05;;
47161;SDS011;32921;53.256;8.198;2023-04-03T08:31:48;4.88;;;0.85;;
47161;SDS011;32921;53.256;8.198;2023-04-03T08:34:15;6.28;;;1.23;;
47161;SDS011;32921;53.256;8.198;2023-04-03T08:36:41;3.35;;;0.95;;
47161;SDS011;32921;53.256;8.198;2023-04-03T08:39:07;5.60;;;1.20;;
47161;SDS011;32921;53.256;8.198;2023-04-03T08:41:34;3.30;;;1.20;;
47161;SDS011;32921;53.256;8.198;2023-04-03T08:44:25;4.93;;;1.05;;
47161;SDS011;32921;53.256;8.198;2023-04-03T08:47:18;4.03;;;1.27;;
47161;SDS011;32921;53.256;8.198;2023-04-03T08:49:53;3.83;;;1.10;;
47161;SDS011;32921;53.256;8.198;2023-04-03T08:55:28;2.90;;;0.95;;
47161;SDS011;32921;53.256;8.198;2023-04-03T08:58:03;3.70;;;1.25;;
47161;SDS011;32921;53.256;8.198;2023-04-03T09:03:33;6.20;;;1.30;;
47161;SDS011;32921;53.256;8.198;2023-04-03T09:06:20;10.38;;;2.50;;
47161;SDS011;32921;53.256;8.198;2023-04-03T09:17:03;5.55;;;1.10;;
47161;SDS011;32921;53.256;8.198;2023-04-03T09:19:57;3.05;;;1.10;;
47161;SDS011;32921;53.256;8.198;2023-04-03T09:22:32;5.97;;;1.35;;
47161;SDS011;32921;53.256;8.198;2023-04-03T09:24:59;6.18;;;1.38;;
47161;SDS011;32921;53.256;8.198;2023-04-03T09:27:28;2.97;;;1.00;;
47161;SDS011;32921;53.256;8.198;2023-04-03T09:29:54;1.20;;;0.65;;
47161;SDS011;32921;53.256;8.198;2023-04-03T09:32:25;4.35;;;1.27;;
47161;SDS011;32921;53.256;8.198;2023-04-03T09:34:56;7.18;;;1.55;;
47161;SDS011;32921;53.256;8.198;2023-04-03T09:37:33;7.55;;;1.50;;
47161;SDS011;32921;53.256;8.198;2023-04-03T09:40:04;4.75;;;1.30;;
47161;SDS011;32921;53.256;8.198;2023-04-03T09:42:31;4.68;;;1.65;;
47161;SDS011;32921;53.256;8.198;2023-04-03T09:45:01;4.57;;;1.40;;
47161;SDS011;32921;53.256;8.198;2023-04-03T09:52:43;5.13;;;1.27;;
47161;SDS011;32921;53.256;8.198;2023-04-03T09:55:14;7.05;;;1.13;;
47161;SDS011;32921;53.256;8.198;2023-04-03T09:57:52;2.20;;;0.98;;
47161;SDS011;32921;53.256;8.198;2023-04-03T10:00:20;5.50;;;1.40;;
47161;SDS011;32921;53.256;8.198;2023-04-03T10:02:49;3.45;;;0.98;;
47161;SDS011;32921;53.256;8.198;2023-04-03T10:11:06;2.35;;;1.00;;
47161;SDS011;32921;53.256;8.198;2023-04-03T10:13:40;1.88;;;0.70;;
47161;SDS011;32921;53.256;8.198;2023-04-03T10:16:16;2.17;;;0.60;;
47161;SDS011;32921;53.256;8.198;2023-04-03T10:18:49;4.07;;;1.65;;
47161;SDS011;32921;53.256;8.198;2023-04-03T10:24:52;2.13;;;0.60;;
47161;SDS011;32921;53.256;8.198;2023-04-03T10:30:02;2.13;;;0.65;;
47161;SDS011;32921;53.256;8.198;2023-04-03T10:33:27;2.83;;;0.63;;
47161;SDS011;32921;53.256;8.198;2023-04-03T10:35:37;1.95;;;0.65;;
47161;SDS011;32921;53.256;8.198;2023-04-03T10:38:35;3.38;;;0.93;;
47161;SDS011;32921;53.256;8.198;2023-04-03T10:41:21;2.83;;;0.90;;
47161;SDS011;32921;53.256;8.198;2023-04-03T10:46:41;1.88;;;0.60;;
47161;SDS011;32921;53.256;8.198;2023-04-03T10:57:29;1.98;;;0.60;;
47161;SDS011;32921;53.256;8.198;2023-04-03T10:59:59;2.03;;;0.73;;
47161;SDS011;32921;53.256;8.198;2023-04-03T11:05:04;1.85;;;0.60;;
47161;SDS011;32921;53.256;8.198;2023-04-03T11:07:39;2.10;;;0.60;;
47161;SDS011;32921;53.256;8.198;2023-04-03T11:12:43;2.95;;;0.80;;
47161;SDS011;32921;53.256;8.198;2023-04-03T11:15:16;1.15;;;0.40;;
47161;SDS011;32921;53.256;8.198;2023-04-03T11:17:50;2.28;;;0.70;;
47161;SDS011;32921;53.256;8.198;2023-04-03T11:20:29;1.02;;;0.70;;
47161;SDS011;32921;53.256;8.198;2023-04-03T11:23:00;3.28;;;1.25;;
47161;SDS011;32921;53.256;8.198;2023-04-03T11:25:29;2.17;;;0.80;;
47161;SDS011;32921;53.256;8.198;2023-04-03T11:27:58;2.70;;;0.70;;
47161;SDS011;32921;53.256;8.198;2023-04-03T11:36:00;4.05;;;0.77;;
47161;SDS011;32921;53.256;8.198;2023-04-03T11:38:36;3.10;;;0.70;;
47161;SDS011;32921;53.256;8.198;2023-04-03T11:41:07;4.90;;;1.38;;
47161;SDS011;32921;53.256;8.198;2023-04-03T11:43:33;3.85;;;0.93;;
47161;SDS011;32921;53.256;8.198;2023-04-03T11:46:05;3.63;;;1.00;;
47161;SDS011;32921;53.256;8.198;2023-04-03T11:53:38;2.47;;;0.70;;
47161;SDS011;32921;53.256;8.198;2023-04-03T12:01:44;2.40;;;0.85;;
47161;SDS011;32921;53.256;8.198;2023-04-03T12:04:16;1.38;;;0.60;;
47161;SDS011;32921;53.256;8.198;2023-04-03T12:09:23;2.17;;;0.73;;
47161;SDS011;32921;53.256;8.198;2023-04-03T12:11:55;2.53;;;0.80;;
47161;SDS011;32921;53.256;8.198;2023-04-03T12:14:22;3.33;;;0.77;;
47161;SDS011;32921;53.256;8.198;2023-04-03T12:16:50;4.53;;;0.70;;
47161;SDS011;32921;53.256;8.198;2023-04-03T12:19:35;2.08;;;0.60;;
47161;SDS011;32921;53.256;8.198;2023-04-03T12:22:07;2.92;;;0.70;;
47161;SDS011;32921;53.256;8.198;2023-04-03T12:24:36;2.53;;;0.73;;
47161;SDS011;32921;53.256;8.198;2023-04-03T12:45:52;3.90;;;1.25;;
47161;SDS011;32921;53.256;8.198;2023-04-03T12:48:29;2.58;;;0.90;;
47161;SDS011;32921;53.256;8.198;2023-04-03T12:50:57;2.70;;;0.90;;
47161;SDS011;32921;53.256;8.198;2023-04-03T12:53:33;2.40;;;0.80;;
47161;SDS011;32921;53.256;8.198;2023-04-03T12:58:56;3.20;;;0.77;;
47161;SDS011;32921;53.256;8.198;2023-04-03T13:02:00;1.90;;;0.80;;
47161;SDS011;32921;53.256;8.198;2023-04-03T13:04:30;2.25;;;1.00;;
47161;SDS011;32921;53.256;8.198;2023-04-03T13:06:57;5.77;;;1.20;;
47161;SDS011;32921;53.256;8.198;2023-04-03T13:09:24;3.45;;;1.00;;
47161;SDS011;32921;53.256;8.198;2023-04-03T13:14:26;3.03;;;0.80;;
47161;SDS011;32921;53.256;8.198;2023-04-03T13:17:02;1.92;;;0.88;;
47161;SDS011;32921;53.256;8.198;2023-04-03T13:19:31;3.13;;;0.85;;
47161;SDS011;32921;53.256;8.198;2023-04-03T13:22:04;3.67;;;1.10;;
47161;SDS011;32921;53.256;8.198;2023-04-03T13:24:35;2.90;;;1.02;;
47161;SDS011;32921;53.256;8.198;2023-04-03T13:27:03;4.70;;;1.30;;
47161;SDS011;32921;53.256;8.198;2023-04-03T13:29:30;3.22;;;1.00;;
47161;SDS011;32921;53.256;8.198;2023-04-03T13:32:02;4.55;;;1.27;;
47161;SDS011;32921;53.256;8.198;2023-04-03T13:34:35;3.63;;;1.05;;
47161;SDS011;32921;53.256;8.198;2023-04-03T13:37:03;3.53;;;0.80;;
47161;SDS011;32921;53.256;8.198;2023-04-03T13:39:34;2.42;;;1.00;;
47161;SDS011;32921;53.256;8.198;2023-04-03T13:42:22;2.88;;;1.00;;
47161;SDS011;32921;53.256;8.198;2023-04-03T13:45:06;2.67;;;0.80;;
47161;SDS011;32921;53.256;8.198;2023-04-03T13:47:46;2.97;;;1.05;;
47161;SDS011;32921;53.256;8.198;2023-04-03T13:50:17;2.80;;;1.00;;
47161;SDS011;32921;53.256;8.198;2023-04-03T13:52:55;3.47;;;1.20;;
47161;SDS011;32921;53.256;8.198;2023-04-03T13:55:31;3.03;;;1.25;;
47161;SDS011;32921;53.256;8.198;2023-04-03T14:02:58;5.97;;;2.10;;
47161;SDS011;32921;53.256;8.198;2023-04-03T14:05:24;3.33;;;1.00;;
47161;SDS011;32921;53.256;8.198;2023-04-03T14:07:50;2.13;;;1.00;;
47161;SDS011;32921;53.256;8.198;2023-04-03T14:10:17;2.38;;;1.00;;
47161;SDS011;32921;53.256;8.198;2023-04-03T14:12:42;5.05;;;1.83;;
47161;SDS011;32921;53.256;8.198;2023-04-03T14:15:20;2.13;;;0.88;;
47161;SDS011;32921;53.256;8.198;2023-04-03T14:17:49;2.65;;;0.85;;
47161;SDS011;32921;53.256;8.198;2023-04-03T14:20:16;4.63;;;1.10;;
47161;SDS011;32921;53.256;8.198;2023-04-03T14:22:45;4.00;;;0.85;;
47161;SDS011;32921;53.256;8.198;2023-04-03T14:25:11;3.70;;;1.00;;
47161;SDS011;32921;53.256;8.198;2023-04-03T14:27:40;3.20;;;0.70;;
47161;SDS011;32921;53.256;8.198;2023-04-03T14:30:09;3.45;;;1.00;;
47161;SDS011;32921;53.256;8.198;2023-04-03T14:32:42;1.33;;;0.50;;
47161;SDS011;32921;53.256;8.198;2023-04-03T14:35:08;3.88;;;0.93;;
47161;SDS011;32921;53.256;8.198;2023-04-03T14:37:34;3.30;;;0.80;;
47161;SDS011;32921;53.256;8.198;2023-04-03T14:40:00;2.83;;;0.80;;
47161;SDS011;32921;53.256;8.198;2023-04-03T14:42:30;1.92;;;0.55;;
47161;SDS011;32921;53.256;8.198;2023-04-03T14:44:58;3.40;;;0.95;;
47161;SDS011;32921;53.256;8.198;2023-04-03T14:47:25;1.60;;;0.70;;
47161;SDS011;32921;53.256;8.198;2023-04-03T14:49:53;3.60;;;1.00;;
47161;SDS011;32921;53.256;8.198;2023-04-03T14:52:24;3.30;;;0.80;;
47161;SDS011;32921;53.256;8.198;2023-04-03T14:54:52;3.92;;;0.80;;
47161;SDS011;32921;53.256;8.198;2023-04-03T14:57:19;4.00;;;0.68;;
47161;SDS011;32921;53.256;8.198;2023-04-03T14:59:46;2.85;;;1.00;;
47161;SDS011;32921;53.256;8.198;2023-04-03T15:02:24;3.15;;;0.90;;
47161;SDS011;32921;53.256;8.198;2023-04-03T15:04:54;3.55;;;0.90;;
47161;SDS011;32921;53.256;8.198;2023-04-03T15:07:20;4.72;;;0.80;;
47161;SDS011;32921;53.256;8.198;2023-04-03T15:09:47;3.83;;;0.90;;
47161;SDS011;32921;53.256;8.198;2023-04-03T15:12:13;5.13;;;1.00;;
47161;SDS011;32921;53.256;8.198;2023-04-03T15:14:39;3.22;;;1.30;;
47161;SDS011;32921;53.256;8.198;2023-04-03T15:17:05;5.07;;;1.38;;
47161;SDS011;32921;53.256;8.198;2023-04-03T15:19:38;3.00;;;1.10;;
47161;SDS011;32921;53.256;8.198;2023-04-03T15:22:04;3.25;;;1.10;;
47161;SDS011;32921;53.256;8.198;2023-04-03T15:24:30;3.92;;;1.00;;
47161;SDS011;32921;53.256;8.198;2023-04-03T15:26:56;4.07;;;0.90;;
47161;SDS011;32921;53.256;8.198;2023-04-03T15:29:22;4.00;;;0.90;;
47161;SDS011;32921;53.256;8.198;2023-04-03T15:31:47;3.17;;;1.02;;
47161;SDS011;32921;53.256;8.198;2023-04-03T15:34:14;4.00;;;1.00;;
47161;SDS011;32921;53.256;8.198;2023-04-03T15:36:41;4.40;;;0.88;;
47161;SDS011;32921;53.256;8.198;2023-04-03T15:39:06;4.18;;;1.08;;
47161;SDS011;32921;53.256;8.198;2023-04-03T15:41:32;4.85;;;1.00;;
47161;SDS011;32921;53.256;8.198;2023-04-03T15:43:57;3.80;;;1.10;;
47161;SDS011;32921;53.256;8.198;2023-04-03T15:46:23;3.05;;;1.08;;
47161;SDS011;32921;53.256;8.198;2023-04-03T15:48:48;3.40;;;1.00;;
47161;SDS011;32921;53.256;8.198;2023-04-03T15:51:14;4.95;;;1.50;;
47161;SDS011;32921;53.256;8.198;2023-04-03T15:53:40;6.32;;;1.30;;
47161;SDS011;32921;53.256;8.198;2023-04-03T15:56:07;4.20;;;1.58;;
47161;SDS011;32921;53.256;8.198;2023-04-03T15:58:34;6.22;;;2.20;;
47161;SDS011;32921;53.256;8.198;2023-04-03T16:01:00;4.63;;;1.30;;
47161;SDS011;32921;53.256;8.198;2023-04-03T16:03:26;3.95;;;1.33;;
47161;SDS011;32921;53.256;8.198;2023-04-03T16:05:51;4.40;;;1.45;;
47161;SDS011;32921;53.256;8.198;2023-04-03T16:08:18;5.80;;;1.35;;
47161;SDS011;32921;53.256;8.198;2023-04-03T16:10:44;4.60;;;1.27;;
47161;SDS011;32921;53.256;8.198;2023-04-03T16:13:13;6.20;;;1.65;;
47161;SDS011;32921;53.256;8.198;2023-04-03T16:15:39;4.65;;;1.42;;
47161;SDS011;32921;53.256;8.198;2023-04-03T16:18:05;4.72;;;1.20;;
47161;SDS011;32921;53.256;8.198;2023-04-03T16:20:31;5.60;;;1.98;;
47161;SDS011;32921;53.256;8.198;2023-04-03T16:22:57;6.78;;;2.25;;
47161;SDS011;32921;53.256;8.198;2023-04-03T16:25:24;5.45;;;1.73;;
47161;SDS011;32921;53.256;8.198;2023-04-03T16:27:50;4.43;;;1.50;;
47161;SDS011;32921;53.256;8.198;2023-04-03T16:30:15;3.45;;;1.10;;
47161;SDS011;32921;53.256;8.198;2023-04-03T16:32:41;4.32;;;1.50;;
47161;SDS011;32921;53.256;8.198;2023-04-03T16:35:07;4.25;;;1.58;;